createdAt,value
2023-04-22T00:01:05.512Z,90.88
2023-04-22T00:03:34.112Z,91.35
2023-04-22T00:06:03.601Z,91.27
2023-04-22T00:08:31.390Z,91.37
2023-04-22T00:10:59.943Z,91.43
2023-04-22T00:13:27.887Z,91.64
2023-04-22T00:15:57.901Z,91.48
2023-04-22T00:18:26.042Z,92.08
2023-04-22T00:20:53.828Z,92.21
2023-04-22T00:23:22.938Z,91.89
2023-04-22T00:25:50.683Z,92.21
2023-04-22T00:28:18.476Z,91.70
2023-04-22T00:30:46.301Z,91.88
2023-04-22T00:33:14.129Z,92.12
2023-04-22T00:35:42.063Z,91.92
2023-04-22T00:38:09.794Z,92.05
2023-04-22T00:40:39.010Z,92.04
2023-04-22T00:43:07.381Z,92.55
2023-04-22T00:45:37.728Z,92.51
2023-04-22T00:48:06.257Z,92.30
2023-04-22T00:50:34.140Z,92.28
2023-04-22T00:53:01.935Z,92.43
2023-04-22T00:55:29.857Z,92.57
2023-04-22T00:58:01.709Z,92.62
2023-04-22T01:00:30.200Z,93.06
2023-04-22T01:02:59.062Z,92.51
2023-04-22T01:05:27.982Z,92.59
2023-04-22T01:07:55.787Z,93.14
2023-04-22T01:10:23.983Z,93.06
2023-04-22T01:12:51.805Z,93.76
2023-04-22T01:15:21.217Z,93.92
2023-04-22T01:17:49.147Z,93.73
2023-04-22T01:20:17.157Z,93.22
2023-04-22T01:22:46.650Z,93.94
2023-04-22T01:25:15.940Z,94.25
2023-04-22T01:27:44.201Z,93.82
2023-04-22T01:30:12.860Z,93.97
2023-04-22T01:32:41.416Z,94.06
2023-04-22T01:35:10.891Z,94.00
2023-04-22T01:37:39.502Z,94.67
2023-04-22T01:40:10.258Z,94.20
2023-04-22T01:42:40.058Z,94.38
2023-04-22T01:45:08.832Z,94.99
2023-04-22T01:47:36.789Z,94.79
2023-04-22T01:50:04.849Z,94.60
2023-04-22T01:52:32.582Z,94.35
2023-04-22T01:55:01.339Z,94.74
2023-04-22T01:57:29.117Z,94.86
2023-04-22T01:59:58.867Z,94.68
2023-04-22T02:02:26.862Z,95.05
2023-04-22T02:04:54.712Z,94.26
2023-04-22T02:07:22.501Z,95.12
2023-04-22T02:09:50.974Z,94.66
2023-04-22T02:12:18.913Z,94.79
2023-04-22T02:14:46.717Z,95.02
2023-04-22T02:17:17.832Z,94.93
2023-04-22T02:19:45.950Z,95.68
2023-04-22T02:22:13.824Z,95.25
2023-04-22T02:24:43.073Z,96.18
2023-04-22T02:27:11.008Z,96.57
2023-04-22T02:29:39.017Z,96.39
2023-04-22T02:32:07.163Z,96.51
2023-04-22T02:34:36.549Z,96.22
2023-04-22T02:37:04.393Z,96.68
2023-04-22T02:39:32.162Z,96.38
2023-04-22T02:41:59.962Z,96.43
2023-04-22T02:44:27.764Z,96.57
2023-04-22T02:46:55.777Z,96.67
2023-04-22T02:49:23.633Z,97.24
2023-04-22T02:51:52.837Z,96.85
2023-04-22T02:54:20.589Z,97.09
2023-04-22T02:56:48.343Z,96.95
2023-04-22T02:59:16.065Z,96.91
2023-04-22T03:01:43.847Z,96.52
2023-04-22T03:04:14.347Z,96.15
2023-04-22T03:06:42.267Z,96.78
2023-04-22T03:09:11.807Z,96.59
2023-04-22T03:11:39.633Z,96.34
2023-04-22T03:14:07.400Z,97.76
2023-04-22T03:16:35.215Z,97.09
2023-04-22T03:19:03.034Z,98.00
2023-04-22T03:21:32.244Z,97.36
2023-04-22T03:24:00.195Z,98.07
2023-04-22T03:26:29.442Z,97.34
2023-04-22T03:28:57.231Z,98.19
2023-04-22T03:31:25.156Z,97.62
2023-04-22T03:33:52.913Z,98.06
2023-04-22T03:36:21.458Z,97.85
2023-04-22T03:38:49.841Z,97.82
2023-04-22T03:41:17.737Z,98.16
2023-04-22T03:43:46.815Z,97.86
2023-04-22T03:46:14.692Z,97.96
2023-04-22T03:48:42.490Z,98.69
2023-04-22T03:51:10.320Z,98.65
2023-04-22T03:53:38.069Z,98.25
2023-04-22T03:56:06.292Z,98.58
2023-04-22T03:58:34.054Z,98.62
2023-04-22T04:01:03.218Z,97.99
2023-04-22T04:03:31.725Z,99.06
2023-04-22T04:05:59.782Z,98.87
2023-04-22T04:08:27.898Z,98.79
2023-04-22T04:10:56.000Z,98.60
2023-04-22T04:13:23.786Z,98.50
2023-04-22T04:15:52.556Z,98.62
2023-04-22T04:18:21.700Z,99.09
2023-04-22T04:20:51.448Z,98.54
2023-04-22T04:23:19.385Z,98.55
2023-04-22T04:25:47.738Z,98.87
2023-04-22T04:28:15.541Z,99.11
2023-04-22T04:30:43.273Z,99.57
2023-04-22T04:33:12.365Z,99.04
2023-04-22T04:35:41.786Z,99.58
2023-04-22T04:38:09.618Z,99.50
2023-04-22T04:40:37.340Z,100.00
2023-04-22T04:43:08.458Z,100.00
2023-04-22T04:45:37.743Z,100.00
2023-04-22T04:48:07.109Z,100.00
2023-04-22T04:50:35.314Z,100.00
2023-04-22T04:53:04.472Z,100.00
2023-04-22T04:55:32.283Z,100.00
2023-04-22T04:58:00.167Z,100.00
2023-04-22T05:00:28.070Z,100.00
2023-04-22T05:02:55.910Z,100.00
2023-04-22T05:05:23.743Z,100.00
2023-04-22T05:07:51.787Z,100.00
2023-04-22T05:10:21.406Z,100.00
2023-04-22T05:12:49.143Z,100.00
2023-04-22T05:15:17.024Z,100.00
2023-04-22T05:17:44.949Z,100.00
2023-04-22T05:20:13.050Z,100.00
2023-04-22T05:22:43.154Z,100.00
2023-04-22T05:25:11.759Z,100.00
2023-04-22T05:27:41.746Z,100.00
2023-04-22T05:30:10.745Z,100.00
2023-04-22T05:32:38.564Z,100.00
2023-04-22T05:35:07.400Z,100.00
2023-04-22T05:37:35.134Z,100.00
2023-04-22T05:40:02.927Z,100.00
2023-04-22T05:42:30.681Z,100.00
2023-04-22T05:44:59.735Z,100.00
2023-04-22T05:47:36.409Z,100.00
2023-04-22T05:50:04.790Z,100.00
2023-04-22T05:52:32.638Z,100.00
2023-04-22T05:55:00.390Z,100.00
2023-04-22T05:57:28.106Z,100.00
2023-04-22T05:59:59.870Z,100.00
2023-04-22T06:02:28.232Z,100.00
2023-04-22T06:05:00.599Z,100.00
2023-04-22T06:07:28.564Z,100.00
2023-04-22T06:10:04.097Z,100.00
2023-04-22T06:12:34.303Z,100.00
2023-04-22T06:15:04.052Z,100.00
2023-04-22T06:17:33.869Z,100.00
2023-04-22T06:20:02.098Z,100.00
2023-04-22T06:22:29.902Z,100.00
2023-04-22T06:24:57.665Z,100.00
2023-04-22T06:27:25.493Z,100.00
2023-04-22T06:29:53.245Z,100.00
2023-04-22T06:32:22.408Z,100.00
2023-04-22T06:34:50.226Z,100.00
2023-04-22T06:37:18.017Z,100.00
2023-04-22T06:39:45.884Z,100.00
2023-04-22T06:42:13.752Z,100.00
2023-04-22T06:44:41.523Z,100.00
2023-04-22T06:47:09.321Z,100.00
2023-04-22T06:49:39.692Z,100.00
2023-04-22T06:52:07.723Z,100.00
2023-04-22T06:54:35.538Z,100.00
2023-04-22T06:57:03.435Z,100.00
2023-04-22T06:59:31.203Z,100.00
2023-04-22T07:01:59.140Z,100.00
2023-04-22T07:04:27.728Z,100.00
2023-04-22T07:06:56.897Z,100.00
2023-04-22T07:09:24.669Z,100.00
2023-04-22T07:11:52.428Z,100.00
2023-04-22T07:14:20.212Z,100.00
2023-04-22T07:16:48.408Z,100.00
2023-04-22T07:19:16.370Z,100.00
2023-04-22T07:21:44.198Z,100.00
2023-04-22T07:24:13.365Z,100.00
2023-04-22T07:26:42.020Z,100.00
2023-04-22T07:29:09.924Z,100.00
2023-04-22T07:31:37.993Z,100.00
2023-04-22T07:34:06.250Z,100.00
2023-04-22T07:36:34.112Z,100.00
2023-04-22T07:39:02.029Z,100.00
2023-04-22T07:41:31.770Z,100.00
2023-04-22T07:43:59.545Z,100.00
2023-04-22T07:46:27.348Z,100.00
2023-04-22T07:48:55.159Z,100.00
2023-04-22T07:51:22.972Z,100.00
2023-04-22T07:53:50.737Z,100.00
2023-04-22T07:56:18.612Z,100.00
2023-04-22T07:58:47.712Z,100.00
2023-04-22T08:01:16.682Z,100.00
2023-04-22T08:03:45.960Z,100.00
2023-04-22T08:06:13.815Z,100.00
2023-04-22T08:08:41.579Z,100.00
2023-04-22T08:11:09.307Z,99.98
2023-04-22T08:13:37.024Z,99.00
2023-04-22T08:16:07.419Z,98.65
2023-04-22T08:18:35.375Z,97.53
2023-04-22T08:21:03.335Z,96.85
2023-04-22T08:23:31.393Z,95.23
2023-04-22T08:25:59.635Z,95.76
2023-04-22T08:28:27.464Z,96.17
2023-04-22T08:30:55.249Z,95.66
2023-04-22T08:33:26.540Z,94.01
2023-04-22T08:35:55.034Z,92.90
2023-04-22T08:38:22.854Z,92.71
2023-04-22T08:40:51.590Z,92.42
2023-04-22T08:43:19.490Z,92.00
2023-04-22T08:45:47.252Z,91.18
2023-04-22T08:48:15.730Z,89.78
2023-04-22T08:50:45.871Z,89.56
2023-04-22T08:53:14.027Z,87.30
2023-04-22T08:55:44.749Z,86.94
2023-04-22T08:58:13.233Z,86.75
2023-04-22T09:00:43.269Z,85.39
2023-04-22T09:03:11.228Z,85.04
2023-04-22T09:05:41.856Z,84.10
2023-04-22T09:08:11.888Z,83.35
2023-04-22T09:10:40.184Z,81.82
2023-04-22T09:13:08.560Z,79.97
2023-04-22T09:15:36.335Z,78.88
2023-04-22T09:18:05.568Z,77.96
2023-04-22T09:20:33.360Z,76.87
2023-04-22T09:23:05.200Z,75.60
2023-04-22T09:25:36.212Z,75.86
2023-04-22T09:28:04.301Z,76.43
2023-04-22T09:30:34.032Z,76.53
2023-04-22T09:33:04.158Z,76.52
2023-04-22T09:35:33.953Z,76.59
2023-04-22T09:38:03.608Z,76.63
2023-04-22T09:40:32.695Z,76.46
2023-04-22T09:43:03.740Z,75.54
2023-04-22T09:45:33.582Z,76.09
2023-04-22T09:48:04.149Z,76.47
2023-04-22T09:50:32.072Z,76.88
2023-04-22T09:53:02.386Z,74.25
2023-04-22T09:55:33.088Z,74.97
2023-04-22T09:58:08.476Z,74.27
2023-04-22T10:00:38.444Z,74.50
2023-04-22T10:03:08.113Z,74.45
2023-04-22T10:05:38.541Z,73.60
2023-04-22T10:08:06.841Z,73.47
2023-04-22T10:10:35.367Z,71.44
2023-04-22T10:13:05.720Z,71.59
2023-04-22T10:15:35.985Z,72.83
2023-04-22T10:18:06.624Z,71.57
2023-04-22T10:20:38.262Z,72.11
2023-04-22T10:23:06.919Z,72.26
2023-04-22T10:25:34.685Z,71.98
2023-04-22T10:28:05.812Z,71.11
2023-04-22T10:30:35.274Z,71.42
2023-04-22T10:33:39.498Z,70.74
2023-04-22T10:36:09.305Z,71.29
2023-04-22T10:38:37.499Z,70.76
2023-04-22T10:41:05.936Z,69.75
2023-04-22T10:43:46.434Z,71.45
2023-04-22T10:47:03.277Z,72.12
2023-04-22T10:49:33.006Z,71.82
2023-04-22T10:52:01.830Z,71.72
2023-04-22T10:54:58.512Z,71.74
2023-04-22T10:57:37.850Z,69.50
2023-04-22T11:00:25.169Z,71.16
2023-04-22T11:02:55.991Z,72.00
2023-04-22T11:05:27.330Z,72.11
2023-04-22T11:07:57.243Z,72.44
2023-04-22T11:10:43.795Z,73.95
2023-04-22T11:13:15.032Z,74.50
2023-04-22T11:15:45.818Z,75.85
2023-04-22T11:18:22.099Z,77.17
2023-04-22T11:20:50.953Z,78.44
2023-04-22T11:23:20.972Z,80.21
2023-04-22T11:25:49.212Z,81.29
2023-04-22T11:28:16.934Z,82.84
2023-04-22T11:30:46.274Z,85.29
2023-04-22T11:33:16.639Z,86.48
2023-04-22T11:35:50.546Z,85.76
2023-04-22T11:38:18.347Z,85.68
2023-04-22T11:40:47.495Z,85.47
2023-04-22T11:43:15.696Z,85.96
2023-04-22T11:45:43.805Z,86.11
2023-04-22T11:48:13.216Z,86.35
2023-04-22T11:50:42.455Z,87.31
2023-04-22T11:53:16.068Z,87.78
2023-04-22T11:55:45.504Z,87.54
2023-04-22T11:58:15.477Z,87.97
2023-04-22T12:00:44.804Z,88.63
2023-04-22T12:03:17.916Z,88.42
2023-04-22T12:05:47.386Z,88.53
2023-04-22T12:08:17.409Z,89.27
2023-04-22T12:10:46.622Z,89.15
2023-04-22T12:13:21.966Z,89.97
2023-04-22T12:15:54.283Z,90.26
2023-04-22T12:18:31.681Z,90.82
2023-04-22T12:21:09.278Z,91.21
2023-04-22T12:23:43.328Z,91.37
2023-04-22T12:26:11.302Z,91.71
2023-04-22T12:28:40.122Z,91.35
2023-04-22T12:31:08.795Z,91.25
2023-04-22T12:33:39.213Z,92.74
2023-04-22T12:36:07.926Z,92.72
2023-04-22T12:38:36.360Z,93.71
2023-04-22T12:41:05.221Z,92.48
2023-04-22T12:43:36.458Z,92.80
2023-04-22T12:46:05.057Z,92.94
2023-04-22T12:48:33.252Z,92.69
2023-04-22T12:51:02.394Z,93.48
2023-04-22T12:53:30.754Z,94.01
2023-04-22T12:55:59.283Z,93.25
2023-04-22T12:58:27.623Z,93.71
2023-04-22T13:00:55.404Z,94.04
2023-04-22T13:03:23.280Z,93.44
2023-04-22T13:05:51.140Z,93.02
2023-04-22T13:08:20.393Z,92.27
2023-04-22T13:10:48.198Z,92.47
2023-04-22T13:13:18.856Z,93.01
2023-04-22T13:15:47.478Z,92.97
2023-04-22T13:18:16.241Z,92.70
2023-04-22T13:20:44.131Z,93.15
2023-04-22T13:23:13.285Z,92.72
2023-04-22T13:25:42.560Z,92.79
2023-04-22T13:28:11.575Z,92.71
2023-04-22T13:30:39.684Z,93.65
2023-04-22T13:33:07.828Z,93.39
2023-04-22T13:35:35.616Z,93.89
2023-04-22T13:38:03.512Z,93.19
2023-04-22T13:40:31.456Z,93.19
2023-04-22T13:43:00.629Z,93.23
2023-04-22T13:45:28.535Z,93.88
2023-04-22T13:47:56.420Z,93.45
2023-04-22T13:50:24.857Z,92.38
2023-04-22T13:52:52.674Z,92.67
2023-04-22T13:55:20.567Z,92.85
2023-04-22T13:57:48.444Z,92.81
2023-04-22T14:00:17.943Z,92.40
2023-04-22T14:02:45.960Z,92.56
2023-04-22T14:05:13.850Z,92.43
2023-04-22T14:07:41.726Z,93.11
2023-04-22T14:10:12.172Z,92.95
2023-04-22T14:12:40.194Z,92.89
2023-04-22T14:15:11.058Z,92.88
2023-04-22T14:17:40.901Z,92.55
2023-04-22T14:20:11.167Z,93.03
2023-04-22T14:22:39.088Z,93.25
2023-04-22T14:25:08.447Z,93.71
2023-04-22T14:27:36.302Z,94.26
2023-04-22T14:30:05.316Z,94.97
2023-04-22T14:32:33.493Z,95.90
2023-04-22T14:35:02.809Z,95.67
2023-04-22T14:37:31.785Z,95.94
2023-04-22T14:39:59.807Z,96.23
2023-04-22T14:42:28.254Z,96.17
2023-04-22T14:44:56.022Z,96.96
2023-04-22T14:47:23.972Z,97.48
2023-04-22T14:49:51.761Z,98.63
2023-04-22T14:52:23.299Z,99.42
2023-04-22T14:54:52.095Z,100.00
2023-04-22T14:57:20.660Z,100.00
2023-04-22T14:59:48.488Z,100.00
2023-04-22T15:02:16.848Z,99.79
2023-04-22T15:04:45.377Z,99.49
2023-04-22T15:07:13.221Z,99.98
2023-04-22T15:09:42.617Z,100.00
2023-04-22T15:12:10.853Z,100.00
2023-04-22T15:14:39.823Z,100.00
2023-04-22T15:17:09.476Z,100.00
2023-04-22T15:19:37.945Z,100.00
2023-04-22T15:22:05.876Z,100.00
2023-04-22T15:24:33.637Z,100.00
2023-04-22T15:27:03.279Z,100.00
2023-04-22T15:29:32.183Z,100.00
2023-04-22T15:32:00.083Z,100.00
2023-04-22T15:34:30.604Z,100.00
2023-04-22T15:36:58.702Z,100.00
2023-04-22T15:39:26.564Z,100.00
2023-04-22T15:41:54.333Z,100.00
2023-04-22T15:44:23.584Z,100.00
2023-04-22T15:50:28.165Z,100.00
2023-04-22T15:52:55.948Z,100.00
2023-04-22T15:55:24.140Z,100.00
2023-04-22T15:57:51.897Z,100.00
2023-04-22T16:00:21.277Z,100.00
2023-04-22T16:02:55.385Z,100.00
2023-04-22T16:05:24.965Z,100.00
2023-04-22T16:07:53.558Z,100.00
2023-04-22T16:10:21.907Z,100.00
2023-04-22T16:12:49.945Z,100.00
2023-04-22T16:15:17.947Z,100.00
2023-04-22T16:17:47.175Z,100.00
2023-04-22T16:20:14.953Z,100.00
2023-04-22T16:22:42.727Z,100.00
2023-04-22T16:25:11.143Z,100.00
2023-04-22T16:27:38.895Z,100.00
2023-04-22T16:30:07.829Z,100.00
2023-04-22T16:32:35.647Z,100.00
2023-04-22T16:35:07.958Z,100.00
2023-04-22T16:37:36.788Z,100.00
2023-04-22T16:40:06.156Z,100.00
2023-04-22T16:42:33.938Z,100.00
2023-04-22T16:45:05.864Z,100.00
2023-04-22T16:47:33.720Z,99.91
2023-04-22T16:50:01.582Z,100.00
2023-04-22T16:52:31.143Z,100.00
2023-04-22T16:54:58.941Z,100.00
2023-04-22T16:57:26.707Z,100.00
2023-04-22T16:59:54.442Z,100.00
2023-04-22T17:02:22.402Z,100.00
2023-04-22T17:04:50.256Z,99.96
2023-04-22T17:07:18.229Z,100.00
2023-04-22T17:09:48.827Z,100.00
2023-04-22T17:12:16.632Z,100.00
2023-04-22T17:14:44.383Z,99.88
2023-04-22T17:17:12.460Z,99.05
2023-04-22T17:19:40.418Z,99.02
2023-04-22T17:22:08.285Z,99.62
2023-04-22T17:24:36.767Z,99.19
2023-04-22T17:27:06.034Z,98.92
2023-04-22T17:29:33.776Z,97.41
2023-04-22T17:32:01.818Z,97.29
2023-04-22T17:34:29.611Z,97.32
2023-04-22T17:36:57.437Z,97.11
2023-04-22T17:39:25.312Z,96.83
2023-04-22T17:41:53.048Z,96.31
2023-04-22T17:44:22.158Z,96.27
2023-04-22T17:46:50.032Z,96.18
2023-04-22T17:49:17.876Z,94.94
2023-04-22T17:51:45.666Z,95.37
2023-04-22T17:54:13.723Z,95.55
2023-04-22T17:56:41.506Z,95.94
2023-04-22T17:59:11.274Z,96.09
2023-04-22T18:01:40.725Z,96.30
2023-04-22T18:04:08.700Z,95.91
2023-04-22T18:06:36.658Z,95.96
2023-04-22T18:09:04.754Z,96.11
2023-04-22T18:11:32.840Z,96.74
2023-04-22T18:14:00.925Z,96.36
2023-04-22T18:16:28.747Z,96.48
2023-04-22T18:18:59.058Z,96.21
2023-04-22T18:21:29.004Z,96.55
2023-04-22T18:23:57.100Z,96.46
2023-04-22T18:26:24.849Z,96.24
2023-04-22T18:28:52.685Z,95.71
2023-04-22T18:31:21.029Z,95.86
2023-04-22T18:33:48.829Z,96.20
2023-04-22T18:36:18.495Z,95.76
2023-04-22T18:38:46.336Z,96.07
2023-04-22T18:41:14.774Z,96.12
2023-04-22T18:43:42.588Z,95.57
2023-04-22T18:46:10.534Z,96.06
2023-04-22T18:48:38.380Z,95.62
2023-04-22T18:51:06.478Z,96.01
2023-04-22T18:53:36.014Z,96.02
2023-04-22T18:56:03.900Z,96.07
2023-04-22T18:58:31.738Z,95.92
2023-04-22T19:00:59.743Z,95.76
2023-04-22T19:03:27.808Z,95.62
2023-04-22T19:05:56.403Z,95.94
2023-04-22T19:08:24.586Z,95.93
2023-04-22T19:10:54.001Z,95.83
2023-04-22T19:13:29.190Z,95.60
2023-04-22T19:15:57.801Z,95.62
2023-04-22T19:18:25.709Z,95.92
2023-04-22T19:20:56.047Z,96.07
2023-04-22T19:23:23.952Z,96.04
2023-04-22T19:25:53.327Z,96.18
2023-04-22T19:28:52.097Z,96.11
2023-04-22T19:31:19.935Z,95.99
2023-04-22T19:33:48.514Z,95.92
2023-04-22T19:36:16.552Z,96.03
2023-04-22T19:41:38.819Z,95.93
2023-04-22T19:47:09.327Z,95.91
2023-04-22T19:49:38.856Z,95.53
2023-04-22T19:52:09.456Z,95.73
2023-04-22T19:54:37.625Z,96.04
2023-04-22T19:57:07.292Z,96.16
2023-04-22T19:59:35.338Z,95.83
2023-04-22T20:02:03.605Z,95.96
2023-04-22T20:04:32.623Z,95.51
2023-04-22T20:07:02.913Z,95.79
2023-04-22T20:09:37.040Z,95.67
2023-04-22T20:12:06.768Z,95.68
2023-04-22T20:14:34.811Z,95.52
2023-04-22T20:17:05.241Z,95.85
2023-04-22T20:19:39.731Z,95.34
2023-04-22T20:22:10.925Z,95.22
2023-04-22T20:24:40.973Z,95.24
2023-04-22T20:27:10.367Z,95.09
2023-04-22T20:29:39.092Z,95.26
2023-04-22T20:32:08.833Z,95.13
2023-04-22T20:34:37.062Z,95.39
2023-04-22T20:37:09.717Z,95.24
2023-04-22T20:39:38.944Z,94.93
2023-04-22T20:42:07.706Z,95.10
2023-04-22T20:44:36.874Z,94.88
2023-04-22T20:47:04.685Z,94.72
2023-04-22T20:49:32.483Z,95.02
2023-04-22T20:52:00.306Z,94.97
2023-04-22T20:54:29.514Z,95.23
2023-04-22T20:56:58.915Z,95.24
2023-04-22T20:59:26.740Z,95.73
2023-04-22T21:01:56.861Z,95.78
2023-04-22T21:04:26.105Z,95.28
2023-04-22T21:06:55.673Z,95.64
2023-04-22T21:09:24.814Z,95.77
2023-04-22T21:11:53.440Z,96.10
2023-04-22T21:14:26.106Z,96.13
2023-04-22T21:17:01.340Z,96.21
2023-04-22T21:19:34.045Z,96.47
2023-04-22T21:22:04.196Z,96.61
2023-04-22T21:24:32.763Z,96.61
2023-04-22T21:27:01.341Z,96.92
2023-04-22T21:29:29.764Z,96.60
2023-04-22T21:32:08.905Z,96.88
2023-04-22T21:34:37.442Z,97.01
2023-04-22T21:37:06.241Z,96.84
2023-04-22T21:39:34.098Z,97.42
2023-04-22T21:42:02.854Z,97.46
2023-04-22T21:44:30.697Z,97.37
2023-04-22T21:46:59.830Z,97.78
2023-04-22T21:49:27.582Z,97.64
2023-04-22T21:51:55.589Z,97.46
2023-04-22T21:54:23.440Z,97.62
2023-04-22T21:56:51.770Z,98.54
2023-04-22T21:59:19.560Z,98.96
2023-04-22T22:01:47.318Z,99.32
2023-04-22T22:04:16.731Z,99.38
2023-04-22T22:06:44.925Z,99.75
2023-04-22T22:09:12.932Z,99.96
2023-04-22T22:11:40.661Z,99.89
2023-04-22T22:14:08.397Z,100.00
2023-04-22T22:16:38.436Z,100.00
2023-04-22T22:19:07.460Z,100.00
2023-04-22T22:21:36.724Z,100.00
2023-04-22T22:24:04.825Z,100.00
2023-04-22T22:26:32.596Z,100.00
2023-04-22T22:29:00.380Z,100.00
2023-04-22T22:31:29.015Z,100.00
2023-04-22T22:33:57.500Z,100.00
2023-04-22T22:36:25.415Z,100.00
2023-04-22T22:38:54.913Z,100.00
2023-04-22T22:41:22.640Z,100.00
2023-04-22T22:43:50.604Z,100.00
2023-04-22T22:46:18.467Z,100.00
2023-04-22T22:48:46.246Z,100.00
2023-04-22T22:51:16.524Z,100.00
2023-04-22T22:53:45.701Z,100.00
2023-04-22T22:56:15.528Z,100.00
2023-04-22T22:58:43.315Z,100.00
2023-04-22T23:01:11.191Z,100.00
2023-04-22T23:03:39.192Z,100.00
2023-04-22T23:06:08.167Z,100.00
2023-04-22T23:08:35.993Z,100.00
2023-04-22T23:11:03.751Z,100.00
2023-04-22T23:13:32.909Z,100.00
2023-04-22T23:16:00.708Z,100.00
2023-04-22T23:18:29.771Z,100.00
2023-04-22T23:21:00.239Z,100.00
2023-04-22T23:23:29.833Z,100.00
2023-04-22T23:25:58.276Z,100.00
2023-04-22T23:28:26.657Z,100.00
2023-04-22T23:30:56.842Z,100.00
2023-04-22T23:33:26.272Z,100.00
2023-04-22T23:35:56.638Z,100.00
2023-04-22T23:38:24.594Z,100.00
2023-04-22T23:40:52.371Z,100.00
2023-04-22T23:43:20.284Z,100.00
2023-04-22T23:45:48.167Z,100.00
2023-04-22T23:48:17.417Z,100.00
2023-04-22T23:50:45.258Z,100.00
2023-04-22T23:53:13.030Z,100.00
2023-04-22T23:55:41.486Z,100.00
2023-04-22T23:58:09.611Z,100.00
